createdAt,value
2019-01-04T00:00:45.391Z,86.44
2019-01-04T00:03:12.922Z,86.49
2019-01-04T00:05:41.283Z,86.08
2019-01-04T00:08:08.566Z,86.57
2019-01-04T00:10:35.979Z,86.05
2019-01-04T00:13:03.012Z,85.74
2019-01-04T00:15:30.305Z,86.45
2019-01-04T00:17:58.071Z,86.28
2019-01-04T00:20:25.417Z,86.89
2019-01-04T00:22:53.481Z,86.52
2019-01-04T00:25:21.545Z,87.07
2019-01-04T00:27:49.473Z,86.40
2019-01-04T00:30:17.982Z,85.76
2019-01-04T00:32:45.366Z,86.49
2019-01-04T00:35:12.978Z,86.10
2019-01-04T00:37:41.727Z,86.15
2019-01-04T00:40:09.284Z,86.54
2019-01-04T00:42:36.934Z,87.26
2019-01-04T00:45:04.874Z,86.34
2019-01-04T00:47:35.290Z,86.65
2019-01-04T00:50:03.826Z,87.25
2019-01-04T00:52:32.189Z,87.64
2019-01-04T00:55:21.354Z,87.42
2019-01-04T00:58:28.134Z,87.61
2019-01-04T01:01:25.083Z,87.21
2019-01-04T01:04:26.218Z,87.09
2019-01-04T01:07:29.834Z,87.87
2019-01-04T01:10:23.508Z,88.03
2019-01-04T01:13:39.604Z,87.58
2019-01-04T01:16:25.968Z,88.91
2019-01-04T01:19:26.129Z,87.83
2019-01-04T01:22:30.343Z,87.96
2019-01-04T01:25:41.751Z,88.91
2019-01-04T01:28:31.923Z,87.42
2019-01-04T01:31:38.497Z,88.92
2019-01-04T01:34:57.364Z,88.34
2019-01-04T01:38:02.500Z,88.99
2019-01-04T01:41:12.652Z,90.38
2019-01-04T01:44:35.659Z,90.73
2019-01-04T01:47:17.171Z,92.07
2019-01-04T01:50:42.410Z,94.11
2019-01-04T01:53:10.070Z,95.65
2019-01-04T01:55:37.749Z,95.63
2019-01-04T01:58:04.767Z,95.20
2019-01-04T02:00:34.391Z,95.42
2019-01-04T02:03:01.993Z,95.34
2019-01-04T02:05:29.825Z,97.16
2019-01-04T02:07:58.594Z,96.36
2019-01-04T02:10:26.010Z,96.55
2019-01-04T02:12:57.822Z,96.98
2019-01-04T02:15:25.480Z,96.54
2019-01-04T02:17:53.039Z,96.53
2019-01-04T02:20:21.004Z,97.90
2019-01-04T02:22:48.667Z,97.58
2019-01-04T02:25:16.430Z,98.47
2019-01-04T02:27:44.085Z,98.31
2019-01-04T02:30:11.138Z,97.64
2019-01-04T02:32:38.513Z,97.32
2019-01-04T02:35:05.573Z,98.19
2019-01-04T02:37:32.903Z,98.62
2019-01-04T02:40:00.554Z,98.80
2019-01-04T02:42:28.939Z,98.95
2019-01-04T02:44:57.833Z,99.56
2019-01-04T02:47:26.517Z,99.58
2019-01-04T02:49:58.282Z,99.69
2019-01-04T02:52:26.446Z,99.13
2019-01-04T02:54:54.420Z,99.69
2019-01-04T02:57:22.589Z,99.23
2019-01-04T02:59:50.455Z,100.00
2019-01-04T03:02:18.120Z,100.00
2019-01-04T03:04:46.802Z,100.00
2019-01-04T03:07:14.370Z,100.00
2019-01-04T03:09:42.023Z,100.00
2019-01-04T03:12:09.998Z,100.00
2019-01-04T03:14:37.352Z,100.00
2019-01-04T03:17:04.720Z,100.00
2019-01-04T03:19:32.474Z,100.00
2019-01-04T03:21:59.544Z,100.00
2019-01-04T03:24:27.492Z,100.00
2019-01-04T03:26:59.659Z,100.00
2019-01-04T03:29:27.615Z,100.00
2019-01-04T03:31:55.493Z,100.00
2019-01-04T03:34:25.077Z,100.00
2019-01-04T03:36:52.372Z,100.00
2019-01-04T03:39:19.703Z,100.00
2019-01-04T03:41:51.183Z,99.53
2019-01-04T03:44:18.529Z,99.89
2019-01-04T03:46:49.548Z,99.32
2019-01-04T03:49:19.160Z,99.83
2019-01-04T03:51:46.507Z,99.60
2019-01-04T03:54:15.502Z,99.47
2019-01-04T03:56:42.857Z,98.99
2019-01-04T03:59:10.752Z,98.51
2019-01-04T04:01:37.761Z,98.04
2019-01-04T04:04:04.800Z,97.92
2019-01-04T04:06:32.175Z,97.81
2019-01-04T04:09:01.980Z,98.00
2019-01-04T04:11:30.990Z,98.99
2019-01-04T04:13:58.096Z,98.78
2019-01-04T04:16:26.601Z,97.92
2019-01-04T04:18:53.588Z,98.78
2019-01-04T04:21:21.665Z,98.65
2019-01-04T04:23:48.981Z,98.96
2019-01-04T04:26:16.738Z,98.86
2019-01-04T04:28:44.095Z,99.01
2019-01-04T04:31:11.114Z,99.36
2019-01-04T04:33:38.642Z,100.00
2019-01-04T04:36:05.654Z,100.00
2019-01-04T04:38:35.456Z,100.00
2019-01-04T04:41:04.146Z,100.00
2019-01-04T04:43:31.174Z,100.00
2019-01-04T04:45:58.451Z,100.00
2019-01-04T04:48:25.831Z,100.00
2019-01-04T04:50:53.458Z,100.00
2019-01-04T04:53:20.812Z,100.00
2019-01-04T04:55:48.370Z,100.00
2019-01-04T04:58:15.388Z,99.98
2019-01-04T05:00:42.670Z,100.00
2019-01-04T05:03:09.722Z,100.00
2019-01-04T05:05:36.970Z,100.00
2019-01-04T05:08:04.335Z,100.00
2019-01-04T05:10:31.721Z,100.00
2019-01-04T05:12:58.732Z,100.00
2019-01-04T05:15:25.770Z,100.00
2019-01-04T05:17:53.158Z,100.00
2019-01-04T05:20:21.100Z,100.00
2019-01-04T05:22:48.094Z,100.00
2019-01-04T05:25:15.400Z,99.37
2019-01-04T05:27:42.854Z,99.97
2019-01-04T05:30:10.143Z,99.80
2019-01-04T05:32:37.562Z,98.94
2019-01-04T05:35:05.646Z,98.70
2019-01-04T05:37:32.710Z,99.06
2019-01-04T05:39:59.743Z,99.01
2019-01-04T05:42:27.085Z,98.45
2019-01-04T05:44:54.461Z,97.79
2019-01-04T05:47:21.796Z,97.60
2019-01-04T05:49:49.759Z,96.91
2019-01-04T05:52:17.015Z,96.79
2019-01-04T05:54:44.365Z,96.68
2019-01-04T05:57:11.383Z,97.06
2019-01-04T05:59:43.171Z,96.77
2019-01-04T06:02:10.513Z,96.58
2019-01-04T06:04:37.906Z,96.61
2019-01-04T06:07:05.473Z,97.22
2019-01-04T06:09:33.105Z,98.02
2019-01-04T06:12:00.990Z,100.00
2019-01-04T06:14:28.321Z,100.00
2019-01-04T06:16:56.701Z,100.00
2019-01-04T06:19:24.053Z,100.00
2019-01-04T06:21:51.426Z,100.00
2019-01-04T06:24:19.790Z,100.00
2019-01-04T06:26:47.353Z,100.00
2019-01-04T06:29:16.032Z,100.00
2019-01-04T06:31:43.694Z,100.00
2019-01-04T06:34:10.703Z,100.00
2019-01-04T06:36:38.402Z,100.00
2019-01-04T06:39:06.746Z,100.00
2019-01-04T06:41:34.033Z,100.00
2019-01-04T06:44:03.050Z,100.00
2019-01-04T06:46:30.484Z,100.00
2019-01-04T06:48:57.501Z,100.00
2019-01-04T06:51:27.935Z,99.64
2019-01-04T06:53:54.389Z,99.53
2019-01-04T06:56:21.422Z,98.78
2019-01-04T06:58:48.798Z,98.22
2019-01-04T07:01:16.134Z,98.12
2019-01-04T07:03:43.511Z,97.55
2019-01-04T07:06:11.162Z,96.94
2019-01-04T07:08:38.534Z,96.23
2019-01-04T07:11:05.974Z,96.08
2019-01-04T07:13:33.329Z,96.37
2019-01-04T07:16:01.606Z,96.93
2019-01-04T07:18:29.575Z,97.14
2019-01-04T07:20:56.581Z,96.67
2019-01-04T07:23:25.517Z,96.20
2019-01-04T07:25:53.478Z,95.66
2019-01-04T07:28:20.833Z,95.76
2019-01-04T07:30:48.295Z,95.65
2019-01-04T07:33:15.651Z,95.30
2019-01-04T07:35:42.649Z,95.45
2019-01-04T07:38:09.951Z,95.90
2019-01-04T07:40:37.814Z,95.01
2019-01-04T07:43:05.473Z,94.73
2019-01-04T07:45:32.834Z,94.96
2019-01-04T07:48:00.286Z,94.94
2019-01-04T07:50:27.642Z,94.93
2019-01-04T07:52:54.680Z,94.47
2019-01-04T07:55:22.041Z,95.15
2019-01-04T07:57:50.528Z,95.26
2019-01-04T08:00:17.899Z,96.23
2019-01-04T08:02:49.578Z,96.51
2019-01-04T08:05:21.598Z,96.53
2019-01-04T08:07:48.950Z,96.78
2019-01-04T08:10:16.508Z,96.29
2019-01-04T08:12:43.866Z,95.85
2019-01-04T08:15:11.217Z,96.73
2019-01-04T08:17:40.407Z,96.31
2019-01-04T08:20:09.004Z,96.64
2019-01-04T08:22:36.002Z,96.73
2019-01-04T08:25:05.231Z,96.56
2019-01-04T08:27:33.028Z,96.79
2019-01-04T08:30:00.022Z,97.11
2019-01-04T08:32:27.614Z,97.14
2019-01-04T08:34:55.377Z,97.78
2019-01-04T08:37:22.390Z,97.50
2019-01-04T08:39:51.389Z,97.56
2019-01-04T08:42:18.427Z,97.43
2019-01-04T08:44:45.430Z,97.91
2019-01-04T08:47:12.766Z,97.72
2019-01-04T08:49:40.505Z,98.03
2019-01-04T08:52:07.784Z,98.07
2019-01-04T08:54:34.785Z,98.32
2019-01-04T08:57:02.392Z,98.54
2019-01-04T08:59:30.181Z,98.59
2019-01-04T09:01:57.512Z,98.84
2019-01-04T09:04:24.863Z,98.46
2019-01-04T09:06:51.861Z,98.09
2019-01-04T09:09:18.872Z,97.06
2019-01-04T09:11:47.334Z,96.53
2019-01-04T09:14:14.795Z,97.00
2019-01-04T09:16:42.146Z,96.09
2019-01-04T09:19:09.547Z,96.21
2019-01-04T09:21:36.582Z,95.95
2019-01-04T09:24:03.903Z,96.01
2019-01-04T09:26:31.676Z,96.43
2019-01-04T09:28:58.669Z,96.26
2019-01-04T09:31:25.694Z,96.12
2019-01-04T09:33:54.182Z,95.91
2019-01-04T09:36:22.468Z,96.18
2019-01-04T09:38:50.345Z,95.79
2019-01-04T09:41:41.086Z,96.13
2019-01-04T09:44:08.439Z,95.59
2019-01-04T09:46:35.810Z,95.15
2019-01-04T09:49:03.499Z,95.42
2019-01-04T09:51:30.908Z,95.21
2019-01-04T09:53:58.575Z,95.70
2019-01-04T09:56:25.960Z,95.02
2019-01-04T09:58:53.898Z,95.97
2019-01-04T10:01:49.286Z,95.62
2019-01-04T10:04:16.376Z,96.15
2019-01-04T10:06:43.823Z,96.10
2019-01-04T10:09:11.187Z,96.01
2019-01-04T10:11:38.631Z,96.89
2019-01-04T10:14:07.418Z,97.27
2019-01-04T10:16:34.482Z,97.74
2019-01-04T10:19:01.575Z,98.20
2019-01-04T10:21:29.025Z,97.92
2019-01-04T10:23:56.866Z,98.40
2019-01-04T10:26:24.400Z,98.80
2019-01-04T10:28:52.166Z,98.26
2019-01-04T10:31:21.237Z,97.70
2019-01-04T10:33:49.167Z,97.23
2019-01-04T10:36:16.886Z,97.63
2019-01-04T10:38:44.345Z,97.97
2019-01-04T10:41:11.700Z,97.08
2019-01-04T10:43:39.770Z,98.13
2019-01-04T10:46:07.737Z,97.99
2019-01-04T10:48:36.028Z,97.81
2019-01-04T10:51:03.072Z,97.55
2019-01-04T10:53:30.304Z,97.24
2019-01-04T10:55:57.401Z,97.29
2019-01-04T10:58:25.961Z,97.51
2019-01-04T11:00:53.036Z,95.98
2019-01-04T11:03:21.652Z,96.36
2019-01-04T11:05:48.828Z,96.66
2019-01-04T11:08:17.208Z,95.36
2019-01-04T11:10:44.291Z,96.23
2019-01-04T11:13:13.550Z,95.64
2019-01-04T11:15:41.343Z,95.33
2019-01-04T11:18:11.682Z,95.84
2019-01-04T11:20:41.671Z,95.17
2019-01-04T11:24:06.563Z,94.42
2019-01-04T11:26:44.872Z,94.34
2019-01-04T11:30:05.636Z,93.49
2019-01-04T11:32:58.531Z,93.51
2019-01-04T11:36:03.419Z,91.55
2019-01-04T11:38:51.989Z,91.20
2019-01-04T11:42:00.252Z,91.42
2019-01-04T11:45:08.226Z,91.69
2019-01-04T11:48:03.442Z,91.04
2019-01-04T11:51:16.123Z,90.31
2019-01-04T11:53:43.672Z,89.85
2019-01-04T11:56:10.847Z,88.12
2019-01-04T11:58:38.977Z,87.90
2019-01-04T12:01:06.088Z,86.98
2019-01-04T12:03:35.023Z,86.29
2019-01-04T12:06:02.122Z,85.91
2019-01-04T12:08:29.231Z,84.77
2019-01-04T12:10:56.311Z,85.67
2019-01-04T12:13:23.725Z,84.42
2019-01-04T12:15:51.383Z,85.36
2019-01-04T12:18:18.458Z,86.16
2019-01-04T12:20:46.603Z,84.94
2019-01-04T12:23:13.765Z,85.72
2019-01-04T12:25:47.226Z,84.34
2019-01-04T12:28:14.307Z,84.97
2019-01-04T12:30:42.643Z,84.79
2019-01-04T12:33:10.454Z,83.96
2019-01-04T12:35:40.161Z,83.64
2019-01-04T12:38:08.699Z,83.78
2019-01-04T12:40:35.867Z,82.74
2019-01-04T12:43:03.516Z,82.45
2019-01-04T12:45:30.799Z,83.37
2019-01-04T12:47:58.983Z,82.30
2019-01-04T12:50:27.979Z,82.53
2019-01-04T12:52:55.020Z,82.50
2019-01-04T12:55:22.091Z,82.11
2019-01-04T12:57:49.510Z,82.94
2019-01-04T13:00:16.631Z,81.63
2019-01-04T13:02:46.292Z,82.05
2019-01-04T13:05:14.000Z,81.77
2019-01-04T13:07:42.860Z,81.84
2019-01-04T13:10:10.258Z,82.66
2019-01-04T13:12:39.146Z,82.95
2019-01-04T13:15:06.932Z,82.38
2019-01-04T13:17:35.995Z,81.52
2019-01-04T13:20:03.570Z,82.41
2019-01-04T13:22:31.320Z,82.60
2019-01-04T13:24:59.743Z,82.74
2019-01-04T13:27:26.915Z,82.19
2019-01-04T13:29:54.403Z,82.17
2019-01-04T13:32:21.618Z,82.12
2019-01-04T13:34:48.686Z,81.53
2019-01-04T13:37:16.571Z,81.58
2019-01-04T13:39:44.185Z,82.72
2019-01-04T13:42:12.204Z,82.38
2019-01-04T13:44:39.270Z,82.64
2019-01-04T13:47:06.551Z,83.27
2019-01-04T13:49:33.611Z,82.25
2019-01-04T13:52:01.721Z,83.62
2019-01-04T13:54:28.823Z,83.67
2019-01-04T13:56:55.890Z,82.66
2019-01-04T13:59:23.010Z,82.21
2019-01-04T14:01:50.079Z,82.87
2019-01-04T14:04:17.232Z,83.23
2019-01-04T14:06:46.510Z,82.79
2019-01-04T14:09:13.923Z,82.34
2019-01-04T14:11:41.014Z,81.92
2019-01-04T14:14:08.264Z,82.54
2019-01-04T14:16:35.334Z,82.21
2019-01-04T14:19:04.206Z,82.51
2019-01-04T14:21:31.296Z,81.49
2019-01-04T14:23:58.445Z,81.90
2019-01-04T14:26:25.519Z,81.42
2019-01-04T14:28:54.123Z,82.23
2019-01-04T14:31:21.191Z,81.54
2019-01-04T14:33:48.267Z,81.07
2019-01-04T14:36:15.945Z,81.08
2019-01-04T14:38:43.319Z,81.30
2019-01-04T14:41:10.722Z,81.82
2019-01-04T14:43:39.276Z,82.02
2019-01-04T14:46:06.343Z,81.93
2019-01-04T14:48:33.404Z,81.75
2019-01-04T14:51:00.498Z,82.91
2019-01-04T14:53:27.572Z,83.58
2019-01-04T14:55:54.642Z,83.49
2019-01-04T14:58:22.592Z,82.80
2019-01-04T15:00:49.958Z,83.61
2019-01-04T15:03:17.979Z,83.70
2019-01-04T15:05:50.399Z,84.18
2019-01-04T15:08:14.735Z,84.03
2019-01-04T15:10:42.081Z,84.61
2019-01-04T15:13:09.169Z,84.81
2019-01-04T15:15:36.228Z,84.12
2019-01-04T15:18:03.939Z,84.98
2019-01-04T15:20:31.295Z,84.84
2019-01-04T15:23:03.156Z,85.33
2019-01-04T15:25:30.241Z,85.24
2019-01-04T15:27:59.828Z,85.80
2019-01-04T15:30:27.167Z,84.68
2019-01-04T15:32:54.963Z,86.44
2019-01-04T15:35:22.019Z,85.44
2019-01-04T15:37:49.080Z,84.60
2019-01-04T15:40:16.274Z,84.82
2019-01-04T15:42:43.341Z,84.88
2019-01-04T15:45:11.419Z,84.32
2019-01-04T15:47:38.703Z,84.85
2019-01-04T15:50:07.359Z,83.58
2019-01-04T15:52:34.428Z,85.63
2019-01-04T15:55:01.517Z,85.60
2019-01-04T15:57:29.771Z,85.29
2019-01-04T15:59:58.283Z,84.56
2019-01-04T16:02:25.691Z,84.53
2019-01-04T16:04:55.201Z,84.14
2019-01-04T16:07:22.747Z,84.04
2019-01-04T16:09:50.811Z,84.68
2019-01-04T16:12:22.679Z,83.15
2019-01-04T16:14:49.927Z,83.29
2019-01-04T16:17:17.302Z,82.64
2019-01-04T16:19:44.425Z,83.18
2019-01-04T16:22:11.496Z,83.12
2019-01-04T16:24:38.554Z,83.55
2019-01-04T16:27:05.638Z,84.30
2019-01-04T16:29:33.047Z,85.12
2019-01-04T16:32:00.766Z,84.47
2019-01-04T16:34:29.027Z,83.62
2019-01-04T16:36:56.688Z,84.33
2019-01-04T16:39:24.586Z,84.04
2019-01-04T16:41:51.807Z,83.97
2019-01-04T16:44:20.391Z,83.20
2019-01-04T16:46:47.742Z,83.67
2019-01-04T16:49:15.340Z,84.29
2019-01-04T16:51:42.763Z,84.90
2019-01-04T16:54:10.804Z,85.26
2019-01-04T16:56:37.876Z,84.27
2019-01-04T16:59:05.522Z,84.06
2019-01-04T17:01:34.055Z,83.79
2019-01-04T17:04:01.486Z,84.47
2019-01-04T17:06:29.750Z,83.96
2019-01-04T17:08:56.910Z,83.47
2019-01-04T17:11:24.070Z,84.32
2019-01-04T17:13:51.137Z,84.64
2019-01-04T17:16:19.935Z,84.68
2019-01-04T17:18:47.755Z,84.60
2019-01-04T17:21:15.420Z,84.60
2019-01-04T17:23:43.078Z,84.33
2019-01-04T17:26:10.270Z,84.94
2019-01-04T17:28:37.996Z,85.34
2019-01-04T17:31:05.059Z,84.74
2019-01-04T17:33:32.437Z,84.44
2019-01-04T17:35:59.506Z,84.83
2019-01-04T17:38:26.569Z,85.24
2019-01-04T17:40:53.808Z,85.26
2019-01-04T17:43:21.509Z,85.98
2019-01-04T17:45:48.858Z,85.83
2019-01-04T17:48:18.368Z,85.68
2019-01-04T17:50:46.026Z,86.43
2019-01-04T17:53:13.792Z,85.22
2019-01-04T17:55:41.003Z,85.22
2019-01-04T17:58:08.193Z,85.70
2019-01-04T18:00:35.599Z,85.85
2019-01-04T18:03:03.029Z,85.79
2019-01-04T18:05:30.571Z,85.19
2019-01-04T18:07:57.767Z,87.07
2019-01-04T18:10:24.873Z,85.52
2019-01-04T18:12:52.284Z,85.28
2019-01-04T18:15:22.219Z,85.29
2019-01-04T18:17:49.395Z,85.27
2019-01-04T18:20:18.619Z,86.87
2019-01-04T18:22:45.796Z,86.13
2019-01-04T18:25:13.992Z,87.58
2019-01-04T18:27:41.067Z,87.36
2019-01-04T18:30:09.557Z,87.86
2019-01-04T18:32:36.681Z,88.57
2019-01-04T18:35:04.326Z,87.35
2019-01-04T18:37:31.696Z,86.93
2019-01-04T18:39:58.771Z,87.05
2019-01-04T18:42:26.511Z,88.44
2019-01-04T18:44:53.878Z,89.29
2019-01-04T18:47:21.217Z,87.81
2019-01-04T18:49:49.084Z,88.25
2019-01-04T18:52:16.670Z,90.84
2019-01-04T18:54:44.920Z,90.30
2019-01-04T18:57:12.038Z,89.27
2019-01-04T18:59:40.154Z,89.00
2019-01-04T19:02:07.801Z,89.96
2019-01-04T19:04:37.199Z,90.75
2019-01-04T19:07:04.763Z,90.87
2019-01-04T19:09:31.825Z,92.01
2019-01-04T19:11:59.247Z,92.43
2019-01-04T19:14:27.078Z,92.57
2019-01-04T19:16:54.142Z,92.72
2019-01-04T19:19:21.944Z,92.27
2019-01-04T19:21:49.578Z,92.47
2019-01-04T19:24:17.010Z,92.08
2019-01-04T19:26:44.367Z,92.69
2019-01-04T19:29:11.737Z,93.32
2019-01-04T19:31:39.455Z,91.97
2019-01-04T19:34:06.892Z,92.30
2019-01-04T19:36:34.863Z,92.27
2019-01-04T19:39:02.729Z,91.81
2019-01-04T19:41:32.683Z,91.15
2019-01-04T19:44:00.638Z,91.21
2019-01-04T19:46:29.962Z,90.95
2019-01-04T19:48:57.465Z,90.62
2019-01-04T19:51:24.537Z,91.13
2019-01-04T19:53:51.858Z,90.20
2019-01-04T19:56:20.566Z,90.82
2019-01-04T19:58:49.604Z,90.63
2019-01-04T20:01:17.314Z,92.32
2019-01-04T20:03:44.700Z,92.72
2019-01-04T20:07:16.637Z,92.58
2019-01-04T20:11:18.404Z,92.20
2019-01-04T20:15:02.344Z,92.52
2019-01-04T20:17:54.539Z,93.27
2019-01-04T20:20:40.426Z,94.07
2019-01-04T20:23:36.569Z,94.40
2019-01-04T20:26:30.075Z,94.31
2019-01-04T20:29:15.694Z,94.80
2019-01-04T20:32:02.682Z,94.80
2019-01-04T20:34:55.300Z,94.66
2019-01-04T20:37:45.192Z,94.87
2019-01-04T20:40:50.871Z,94.95
2019-01-04T20:43:44.223Z,95.07
2019-01-04T20:46:29.627Z,95.23
2019-01-04T20:49:15.754Z,95.63
2019-01-04T20:52:17.755Z,95.67
2019-01-04T20:55:15.323Z,95.47
2019-01-04T20:58:02.135Z,96.82
2019-01-04T21:00:49.535Z,96.24
2019-01-04T21:03:28.886Z,96.31
2019-01-04T21:06:31.067Z,95.76
2019-01-04T21:09:26.010Z,96.09
2019-01-04T21:12:22.191Z,94.45
2019-01-04T21:15:07.360Z,95.04
2019-01-04T21:18:09.753Z,94.14
2019-01-04T21:20:55.963Z,93.68
2019-01-04T21:23:33.492Z,94.39
2019-01-04T21:26:35.554Z,94.62
2019-01-04T21:29:29.515Z,93.65
2019-01-04T21:32:15.227Z,93.82
2019-01-04T21:34:59.385Z,94.15
2019-01-04T21:38:01.344Z,93.56
2019-01-04T21:40:44.998Z,93.92
2019-01-04T21:43:43.733Z,94.76
2019-01-04T21:46:45.623Z,94.48
2019-01-04T21:49:32.684Z,94.76
2019-01-04T21:52:22.488Z,94.96
2019-01-04T21:55:12.619Z,94.96
2019-01-04T21:57:58.697Z,96.82
2019-01-04T22:00:52.679Z,97.39
2019-01-04T22:03:54.504Z,96.70
2019-01-04T22:06:50.511Z,96.22
2019-01-04T22:09:37.015Z,97.15
2019-01-04T22:12:24.033Z,96.62
2019-01-04T22:15:12.274Z,95.96
2019-01-04T22:18:04.824Z,96.33
2019-01-04T22:20:50.523Z,96.38
2019-01-04T22:23:37.168Z,96.53
2019-01-04T22:26:22.760Z,96.64
2019-01-04T22:29:11.912Z,96.81
2019-01-04T22:31:52.591Z,96.43
2019-01-04T22:34:38.320Z,96.23
2019-01-04T22:37:23.921Z,96.07
2019-01-04T22:40:19.750Z,97.99
2019-01-04T22:43:18.608Z,97.48
2019-01-04T22:46:11.214Z,98.74
2019-01-04T22:49:02.212Z,98.13
2019-01-04T22:51:49.967Z,97.76
2019-01-04T22:54:49.036Z,98.15
2019-01-04T22:57:36.721Z,97.87
2019-01-04T23:00:30.030Z,98.69
2019-01-04T23:03:17.503Z,97.99
2019-01-04T23:06:10.775Z,97.66
2019-01-04T23:08:56.175Z,97.50
2019-01-04T23:11:41.910Z,97.47
2019-01-04T23:14:35.673Z,97.67
2019-01-04T23:17:28.463Z,97.71
2019-01-04T23:20:09.906Z,96.68
2019-01-04T23:23:05.455Z,96.97
2019-01-04T23:25:48.887Z,95.69
2019-01-04T23:28:36.214Z,95.31
2019-01-04T23:31:22.410Z,95.58
2019-01-04T23:34:13.113Z,95.58
2019-01-04T23:36:58.947Z,94.65
2019-01-04T23:39:44.598Z,95.56
2019-01-04T23:42:30.110Z,95.32
2019-01-04T23:45:14.109Z,95.17
2019-01-04T23:48:09.830Z,94.55
2019-01-04T23:50:55.517Z,94.81
2019-01-04T23:53:45.497Z,95.29
2019-01-04T23:56:38.557Z,96.06
2019-01-04T23:59:25.562Z,95.52
